createdAt,value
2023-01-29T00:01:25.013Z,11.32
2023-01-29T00:03:27.745Z,12.30
2023-01-29T00:05:30.585Z,10.65
2023-01-29T00:07:33.303Z,11.77
2023-01-29T00:09:36.017Z,11.40
2023-01-29T00:11:40.400Z,12.02
2023-01-29T00:13:43.613Z,12.60
2023-01-29T00:15:55.347Z,13.32
2023-01-29T00:17:58.046Z,11.93
2023-01-29T00:20:00.686Z,13.90
2023-01-29T00:22:03.724Z,12.63
2023-01-29T00:24:06.796Z,15.88
2023-01-29T00:26:10.224Z,12.73
2023-01-29T00:28:14.684Z,13.55
2023-01-29T00:30:19.781Z,11.95
2023-01-29T00:32:22.831Z,10.52
2023-01-29T00:34:25.650Z,12.05
2023-01-29T00:36:28.959Z,11.73
2023-01-29T00:38:31.807Z,10.77
2023-01-29T00:40:55.412Z,12.07
2023-01-29T00:43:15.482Z,11.07
2023-01-29T00:45:18.729Z,13.75
2023-01-29T00:47:33.304Z,13.15
2023-01-29T00:49:36.059Z,11.00
2023-01-29T00:51:39.809Z,12.48
2023-01-29T00:53:42.452Z,12.55
2023-01-29T00:55:46.018Z,12.57
2023-01-29T00:57:48.903Z,13.38
2023-01-29T00:59:51.685Z,13.40
2023-01-29T01:02:13.364Z,13.48
2023-01-29T01:04:16.312Z,13.02
2023-01-29T01:06:18.911Z,14.40
2023-01-29T01:08:39.417Z,12.10
2023-01-29T01:10:42.119Z,11.82
2023-01-29T01:12:45.054Z,11.80
2023-01-29T01:14:47.951Z,12.77
2023-01-29T01:16:50.701Z,11.75
2023-01-29T01:18:54.718Z,11.40
2023-01-29T01:20:59.560Z,12.88
2023-01-29T01:23:02.269Z,13.00
2023-01-29T01:25:05.502Z,10.95
2023-01-29T01:27:08.467Z,11.45
2023-01-29T01:29:11.163Z,12.63
2023-01-29T01:31:15.544Z,13.77
2023-01-29T01:33:18.457Z,21.13
2023-01-29T01:35:22.507Z,14.23
2023-01-29T01:37:25.135Z,13.68
2023-01-29T01:39:27.935Z,11.95
2023-01-29T01:41:30.844Z,10.45
2023-01-29T01:43:49.232Z,13.85
2023-01-29T01:45:51.887Z,12.95
2023-01-29T01:47:59.959Z,11.55
2023-01-29T01:50:08.747Z,14.52
2023-01-29T01:52:15.209Z,11.18
2023-01-29T01:54:22.443Z,11.93
2023-01-29T01:56:28.981Z,9.88
2023-01-29T01:58:35.847Z,10.18
2023-01-29T02:00:39.997Z,13.07
2023-01-29T02:03:03.282Z,12.20
2023-01-29T02:05:24.244Z,13.75
2023-01-29T02:07:45.939Z,11.00
2023-01-29T02:09:53.512Z,11.00
2023-01-29T02:11:56.990Z,10.82
2023-01-29T02:14:00.331Z,12.43
2023-01-29T02:16:02.986Z,10.98
2023-01-29T02:18:06.137Z,10.88
2023-01-29T02:20:15.804Z,9.20
2023-01-29T02:23:03.614Z,12.20
2023-01-29T02:25:19.265Z,13.20
2023-01-29T02:27:25.469Z,12.45
2023-01-29T02:29:37.744Z,10.65
2023-01-29T02:31:46.010Z,12.60
2023-01-29T02:33:57.181Z,12.23
2023-01-29T02:36:09.379Z,11.38
2023-01-29T02:38:18.833Z,10.80
2023-01-29T02:40:30.142Z,12.32
2023-01-29T02:42:37.798Z,12.32
2023-01-29T02:44:44.717Z,11.85
2023-01-29T02:46:55.857Z,10.40
2023-01-29T02:49:03.137Z,10.30
2023-01-29T02:51:11.509Z,11.63
2023-01-29T02:53:17.361Z,10.25
2023-01-29T02:55:25.102Z,10.98
2023-01-29T02:57:31.536Z,10.80
2023-01-29T02:59:40.360Z,12.52
2023-01-29T03:01:49.195Z,11.02
2023-01-29T03:03:56.086Z,10.88
2023-01-29T03:06:06.343Z,10.93
2023-01-29T03:08:12.209Z,9.38
2023-01-29T03:10:19.665Z,13.43
2023-01-29T03:12:34.061Z,10.95
2023-01-29T03:14:53.852Z,10.80
2023-01-29T03:16:58.176Z,9.98
2023-01-29T03:19:07.246Z,12.52
2023-01-29T03:21:29.882Z,11.80
2023-01-29T03:23:54.101Z,10.77
2023-01-29T03:26:17.706Z,9.90
2023-01-29T03:28:40.794Z,10.20
2023-01-29T03:31:06.165Z,9.40
2023-01-29T03:33:13.269Z,10.30
2023-01-29T03:35:33.435Z,10.77
2023-01-29T03:37:39.768Z,10.38
2023-01-29T03:39:43.149Z,10.90
2023-01-29T03:41:54.340Z,11.48
2023-01-29T03:44:10.630Z,12.10
2023-01-29T03:46:21.302Z,12.80
2023-01-29T03:48:32.510Z,9.90
2023-01-29T03:50:41.600Z,10.20
2023-01-29T03:52:50.379Z,11.55
2023-01-29T03:55:01.108Z,10.80
2023-01-29T03:57:15.409Z,11.57
2023-01-29T03:59:26.984Z,12.65
2023-01-29T04:01:34.535Z,12.88
2023-01-29T04:03:42.448Z,11.43
2023-01-29T04:05:50.194Z,11.23
2023-01-29T04:07:58.753Z,10.75
2023-01-29T04:10:05.095Z,10.98
2023-01-29T04:12:10.543Z,12.02
2023-01-29T04:14:14.858Z,11.98
2023-01-29T04:16:21.687Z,10.70
2023-01-29T04:18:25.273Z,11.63
2023-01-29T04:20:29.989Z,12.23
2023-01-29T04:22:35.139Z,13.13
2023-01-29T04:24:38.607Z,14.50
2023-01-29T04:26:56.557Z,8.25
2023-01-29T04:29:22.835Z,10.32
2023-01-29T04:31:31.442Z,10.45
2023-01-29T04:33:41.085Z,11.40
2023-01-29T04:36:02.082Z,10.75
2023-01-29T04:38:12.580Z,11.32
2023-01-29T04:40:21.762Z,12.95
2023-01-29T04:42:30.541Z,10.27
2023-01-29T04:44:39.979Z,10.63
2023-01-29T04:46:49.895Z,10.65
2023-01-29T04:49:05.086Z,12.43
2023-01-29T04:51:16.665Z,11.45
2023-01-29T04:53:27.442Z,10.48
2023-01-29T04:55:37.003Z,10.35
2023-01-29T04:57:48.240Z,12.25
2023-01-29T04:59:58.413Z,9.13
2023-01-29T05:02:02.937Z,14.05
2023-01-29T05:04:10.993Z,12.05
2023-01-29T05:06:16.877Z,10.60
2023-01-29T05:08:22.514Z,9.90
2023-01-29T05:10:27.443Z,11.07
2023-01-29T05:12:31.453Z,10.70
2023-01-29T05:14:36.073Z,11.30
2023-01-29T05:16:43.885Z,12.23
2023-01-29T05:18:47.025Z,12.02
2023-01-29T05:20:51.122Z,10.43
2023-01-29T05:22:55.820Z,9.75
2023-01-29T05:24:58.616Z,11.95
2023-01-29T05:27:19.041Z,11.98
2023-01-29T05:29:22.203Z,10.98
2023-01-29T05:31:24.978Z,11.65
2023-01-29T05:33:29.345Z,9.73
2023-01-29T05:35:32.358Z,11.13
2023-01-29T05:37:34.970Z,13.20
2023-01-29T05:39:39.026Z,12.77
2023-01-29T05:41:41.747Z,11.85
2023-01-29T05:43:44.420Z,12.23
2023-01-29T05:45:54.038Z,14.25
2023-01-29T05:47:57.967Z,11.00
2023-01-29T05:50:00.603Z,13.30
2023-01-29T05:52:03.272Z,12.77
2023-01-29T05:54:06.251Z,13.10
2023-01-29T05:56:10.368Z,10.77
2023-01-29T05:58:13.046Z,14.30
2023-01-29T06:00:17.245Z,11.80
2023-01-29T06:02:20.986Z,12.48
2023-01-29T06:04:23.613Z,11.90
2023-01-29T06:06:26.290Z,12.48
2023-01-29T06:08:28.905Z,14.55
2023-01-29T06:10:31.486Z,12.25
2023-01-29T06:12:35.462Z,10.55
2023-01-29T06:14:38.129Z,13.15
2023-01-29T06:16:40.733Z,11.25
2023-01-29T06:18:43.779Z,11.13
2023-01-29T06:20:46.449Z,13.15
2023-01-29T06:22:49.076Z,14.98
2023-01-29T06:24:51.661Z,13.55
2023-01-29T06:26:54.301Z,10.48
2023-01-29T06:28:58.248Z,8.48
2023-01-29T06:31:19.914Z,13.45
2023-01-29T06:33:25.310Z,15.13
2023-01-29T06:35:28.772Z,11.52
2023-01-29T06:37:31.389Z,13.75
2023-01-29T06:39:34.029Z,13.50
2023-01-29T06:41:36.869Z,11.95
2023-01-29T06:43:39.802Z,13.88
2023-01-29T06:45:49.449Z,14.40
2023-01-29T06:47:52.593Z,11.40
2023-01-29T06:49:55.234Z,11.73
2023-01-29T06:51:58.243Z,13.55
2023-01-29T06:54:01.030Z,12.68
2023-01-29T06:56:03.737Z,10.02
2023-01-29T06:58:07.986Z,12.95
2023-01-29T07:00:12.080Z,10.63
2023-01-29T07:02:16.577Z,14.32
2023-01-29T07:04:19.301Z,11.70
2023-01-29T07:06:22.306Z,13.25
2023-01-29T07:08:24.931Z,11.73
2023-01-29T07:10:27.547Z,12.32
2023-01-29T07:12:30.170Z,15.18
2023-01-29T07:14:32.783Z,12.70
2023-01-29T07:16:35.512Z,14.35
2023-01-29T07:18:39.543Z,14.02
2023-01-29T07:20:43.663Z,12.13
2023-01-29T07:22:46.299Z,12.32
2023-01-29T07:24:48.965Z,13.98
2023-01-29T07:26:51.587Z,14.80
2023-01-29T07:28:54.176Z,11.30
2023-01-29T07:30:58.007Z,14.60
2023-01-29T07:33:03.806Z,12.02
2023-01-29T07:35:09.962Z,13.55
2023-01-29T07:37:12.642Z,17.00
2023-01-29T07:39:15.308Z,13.93
2023-01-29T07:41:18.283Z,13.30
2023-01-29T07:43:21.106Z,13.93
2023-01-29T07:45:23.715Z,11.50
2023-01-29T07:47:26.417Z,11.68
2023-01-29T07:49:28.977Z,12.68
2023-01-29T07:51:33.042Z,12.57
2023-01-29T07:53:35.810Z,12.18
2023-01-29T07:55:38.467Z,14.85
2023-01-29T07:57:41.075Z,13.55
2023-01-29T07:59:43.745Z,12.60
2023-01-29T08:01:46.375Z,12.30
2023-01-29T08:03:50.584Z,13.57
2023-01-29T08:05:54.009Z,12.60
2023-01-29T08:08:06.607Z,11.30
2023-01-29T08:10:11.011Z,12.27
2023-01-29T08:12:13.635Z,13.65
2023-01-29T08:14:16.288Z,14.48
2023-01-29T08:16:19.027Z,12.23
2023-01-29T08:18:21.627Z,13.60
2023-01-29T08:20:24.523Z,13.70
2023-01-29T08:22:27.241Z,11.95
2023-01-29T08:24:41.598Z,13.90
2023-01-29T08:26:53.815Z,14.35
2023-01-29T08:28:56.455Z,14.30
2023-01-29T08:30:59.215Z,14.57
2023-01-29T08:33:02.483Z,17.05
2023-01-29T08:35:05.660Z,12.50
2023-01-29T08:37:08.448Z,11.63
2023-01-29T08:39:11.135Z,12.98
2023-01-29T08:41:15.105Z,13.57
2023-01-29T08:43:17.701Z,12.32
2023-01-29T08:45:20.390Z,13.93
2023-01-29T08:47:23.047Z,13.23
2023-01-29T08:49:25.766Z,11.10
2023-01-29T08:51:28.404Z,15.00
2023-01-29T08:53:31.202Z,13.43
2023-01-29T08:55:33.945Z,11.48
2023-01-29T08:57:38.212Z,11.82
2023-01-29T08:59:40.844Z,11.55
2023-01-29T09:01:43.480Z,11.80
2023-01-29T09:03:46.816Z,12.32
2023-01-29T09:05:49.634Z,13.35
2023-01-29T09:07:54.185Z,12.68
2023-01-29T09:09:56.980Z,10.38
2023-01-29T09:11:59.582Z,12.10
2023-01-29T09:14:03.553Z,13.80
2023-01-29T09:16:07.002Z,13.57
2023-01-29T09:18:09.650Z,13.95
2023-01-29T09:20:12.926Z,11.00
2023-01-29T09:22:15.670Z,11.77
2023-01-29T09:24:18.356Z,9.95
2023-01-29T09:26:21.038Z,12.27
2023-01-29T09:28:23.840Z,10.93
2023-01-29T09:30:27.829Z,12.55
2023-01-29T09:34:53.995Z,13.15
2023-01-29T09:36:56.634Z,12.23
2023-01-29T09:38:59.319Z,12.60
2023-01-29T09:41:09.736Z,14.00
2023-01-29T09:43:17.724Z,12.95
2023-01-29T09:45:25.042Z,11.30
2023-01-29T09:47:30.858Z,11.27
2023-01-29T09:49:37.773Z,11.55
2023-01-29T09:51:44.323Z,11.90
2023-01-29T09:53:52.943Z,11.48
2023-01-29T09:56:02.897Z,11.45
2023-01-29T09:58:13.033Z,13.18
2023-01-29T10:00:19.260Z,11.85
2023-01-29T10:02:53.436Z,10.00
2023-01-29T10:05:21.021Z,10.63
2023-01-29T10:07:50.308Z,13.90
2023-01-29T10:10:07.625Z,11.68
2023-01-29T10:12:25.675Z,13.13
2023-01-29T10:14:37.989Z,13.52
2023-01-29T10:16:53.696Z,10.02
2023-01-29T10:19:17.185Z,12.98
2023-01-29T10:21:36.621Z,11.50
2023-01-29T10:23:46.924Z,13.00
2023-01-29T10:25:49.988Z,13.85
2023-01-29T10:27:54.976Z,14.63
2023-01-29T10:29:58.079Z,14.55
2023-01-29T10:32:05.828Z,14.10
2023-01-29T10:34:13.656Z,14.10
2023-01-29T10:36:21.943Z,13.27
2023-01-29T10:38:32.725Z,13.35
2023-01-29T10:40:40.940Z,13.02
2023-01-29T10:42:49.944Z,11.80
2023-01-29T10:45:10.075Z,12.25
2023-01-29T10:47:32.481Z,11.82
2023-01-29T10:50:06.330Z,12.55
2023-01-29T10:52:26.032Z,11.05
2023-01-29T10:54:42.742Z,13.55
2023-01-29T10:56:59.573Z,11.38
2023-01-29T10:59:06.124Z,12.00
2023-01-29T11:01:09.528Z,12.55
2023-01-29T11:03:27.400Z,13.55
2023-01-29T11:05:36.285Z,12.13
2023-01-29T11:07:38.970Z,11.55
2023-01-29T11:09:46.588Z,10.50
2023-01-29T11:11:53.850Z,13.18
2023-01-29T11:14:00.086Z,12.57
2023-01-29T11:16:05.002Z,11.48
2023-01-29T11:18:13.535Z,11.68
2023-01-29T11:20:28.670Z,15.27
2023-01-29T11:22:32.036Z,11.85
2023-01-29T11:24:34.675Z,10.32
2023-01-29T11:26:41.463Z,9.70
2023-01-29T11:28:45.985Z,13.25
2023-01-29T11:30:48.831Z,11.45
2023-01-29T11:32:58.927Z,11.63
2023-01-29T11:35:04.637Z,12.38
2023-01-29T11:37:17.765Z,12.48
2023-01-29T11:39:21.995Z,11.15
2023-01-29T11:41:25.435Z,10.85
2023-01-29T11:43:33.469Z,11.85
2023-01-29T11:45:40.633Z,11.43
2023-01-29T11:47:43.419Z,11.57
2023-01-29T11:49:49.243Z,10.88
2023-01-29T11:51:56.230Z,11.10
2023-01-29T11:56:06.844Z,11.80
2023-01-29T11:58:16.799Z,12.27
2023-01-29T12:00:23.990Z,12.45
2023-01-29T12:02:37.079Z,11.32
2023-01-29T12:04:40.316Z,10.98
2023-01-29T12:06:48.795Z,12.10
2023-01-29T12:08:57.897Z,10.30
2023-01-29T12:11:10.032Z,12.15
2023-01-29T12:13:26.584Z,10.95
2023-01-29T12:15:30.679Z,12.52
2023-01-29T12:17:37.816Z,12.57
2023-01-29T12:19:44.748Z,14.18
2023-01-29T12:21:50.522Z,13.85
2023-01-29T12:23:58.488Z,11.38
2023-01-29T12:26:05.800Z,13.80
2023-01-29T12:28:20.340Z,10.13
2023-01-29T12:30:29.511Z,11.02
2023-01-29T12:32:44.117Z,13.32
2023-01-29T12:34:52.044Z,11.43
2023-01-29T12:37:00.658Z,10.15
2023-01-29T12:39:03.461Z,12.00
2023-01-29T12:41:10.144Z,10.05
2023-01-29T12:43:17.053Z,13.00
2023-01-29T12:45:21.930Z,13.90
2023-01-29T12:47:31.807Z,12.02
2023-01-29T12:49:40.060Z,11.18
2023-01-29T12:51:51.720Z,9.95
2023-01-29T12:53:58.655Z,12.30
2023-01-29T12:58:13.705Z,9.35
2023-01-29T13:00:22.475Z,10.52
2023-01-29T13:02:33.760Z,11.38
2023-01-29T13:04:41.123Z,12.32
2023-01-29T13:06:49.149Z,10.65
2023-01-29T13:08:55.465Z,11.82
2023-01-29T13:11:01.897Z,14.57
2023-01-29T13:13:12.379Z,9.98
2023-01-29T13:15:25.544Z,10.23
2023-01-29T13:17:35.878Z,11.88
2023-01-29T13:19:45.287Z,10.32
2023-01-29T13:21:48.769Z,12.23
2023-01-29T13:23:54.450Z,9.20
2023-01-29T13:25:58.386Z,12.05
2023-01-29T13:28:01.541Z,10.32
2023-01-29T13:30:05.532Z,10.00
2023-01-29T13:32:10.371Z,10.50
2023-01-29T13:34:16.341Z,9.90
2023-01-29T13:36:26.814Z,10.55
2023-01-29T13:38:33.172Z,9.13
2023-01-29T13:40:35.870Z,9.98
2023-01-29T13:42:43.876Z,9.18
2023-01-29T13:44:50.438Z,9.70
2023-01-29T13:46:57.969Z,9.18
2023-01-29T13:49:04.877Z,8.48
2023-01-29T13:53:25.365Z,9.13
2023-01-29T13:55:32.309Z,9.90
2023-01-29T13:59:53.994Z,8.32
2023-01-29T14:02:20.074Z,11.10
2023-01-29T14:04:25.570Z,10.60
2023-01-29T14:06:49.948Z,8.93
2023-01-29T14:08:53.958Z,9.25
2023-01-29T14:11:26.921Z,11.75
2023-01-29T14:13:35.801Z,9.13
2023-01-29T14:15:40.312Z,11.73
2023-01-29T14:17:55.871Z,13.02
2023-01-29T14:20:03.429Z,8.27
2023-01-29T14:22:06.563Z,11.15
2023-01-29T14:24:17.898Z,9.00
2023-01-29T14:26:32.418Z,10.13
2023-01-29T14:28:36.348Z,9.50
2023-01-29T14:30:40.851Z,9.52
2023-01-29T14:32:49.071Z,9.60
2023-01-29T14:34:56.704Z,10.38
2023-01-29T14:37:04.071Z,15.52
2023-01-29T14:39:08.179Z,20.67
2023-01-29T14:41:22.244Z,28.90
2023-01-29T14:43:25.286Z,13.70
2023-01-29T14:45:30.041Z,12.52
2023-01-29T14:47:55.539Z,13.55
2023-01-29T14:49:59.330Z,12.23
2023-01-29T14:52:02.828Z,12.63
2023-01-29T14:54:15.319Z,10.60
2023-01-29T14:56:27.277Z,12.55
2023-01-29T14:58:38.094Z,9.25
2023-01-29T15:00:44.478Z,9.35
2023-01-29T15:02:48.438Z,10.80
2023-01-29T15:04:55.439Z,11.88
2023-01-29T15:09:13.590Z,15.05
2023-01-29T15:11:35.831Z,11.60
2023-01-29T15:13:47.095Z,7.95
2023-01-29T15:15:55.099Z,9.70
2023-01-29T15:18:02.808Z,8.85
2023-01-29T15:20:28.240Z,10.48
2023-01-29T15:22:32.826Z,12.20
2023-01-29T15:24:36.059Z,11.02
2023-01-29T15:26:43.606Z,12.15
2023-01-29T15:28:51.855Z,11.68
2023-01-29T15:30:59.246Z,10.65
2023-01-29T15:33:03.563Z,10.30
2023-01-29T15:35:10.930Z,12.60
2023-01-29T15:37:27.741Z,10.65
2023-01-29T15:39:31.612Z,11.77
2023-01-29T15:41:34.261Z,10.45
2023-01-29T15:43:44.872Z,8.40
2023-01-29T15:45:49.257Z,13.00
2023-01-29T15:47:53.670Z,14.30
2023-01-29T15:49:57.317Z,11.30
2023-01-29T15:52:04.481Z,13.30
2023-01-29T15:54:15.685Z,13.63
2023-01-29T15:56:20.973Z,14.18
2023-01-29T15:58:29.095Z,11.20
2023-01-29T16:00:33.424Z,13.05
2023-01-29T16:02:41.122Z,14.20
2023-01-29T16:04:44.185Z,12.60
2023-01-29T16:06:48.310Z,12.88
2023-01-29T16:08:54.652Z,13.82
2023-01-29T16:11:00.180Z,15.30
2023-01-29T16:13:04.241Z,14.43
2023-01-29T16:15:14.215Z,13.65
2023-01-29T16:17:26.959Z,15.00
2023-01-29T16:19:30.581Z,16.70
2023-01-29T16:21:37.455Z,15.55
2023-01-29T16:23:44.570Z,15.52
2023-01-29T16:25:48.481Z,14.70
2023-01-29T16:27:52.510Z,15.73
2023-01-29T16:29:55.279Z,13.35
2023-01-29T16:32:01.881Z,16.27
2023-01-29T16:34:11.592Z,18.17
2023-01-29T16:36:18.634Z,15.13
2023-01-29T16:40:33.306Z,16.77
2023-01-29T16:42:37.716Z,17.83
2023-01-29T16:44:41.411Z,15.77
2023-01-29T16:46:47.555Z,17.90
2023-01-29T16:48:50.398Z,18.30
2023-01-29T16:51:04.931Z,17.90
2023-01-29T16:53:13.369Z,22.08
2023-01-29T16:55:22.770Z,23.55
2023-01-29T16:57:29.827Z,21.58
2023-01-29T17:01:37.566Z,18.15
2023-01-29T17:03:41.717Z,15.55
2023-01-29T17:05:45.322Z,16.77
2023-01-29T17:07:50.136Z,17.88
2023-01-29T17:09:57.314Z,18.85
2023-01-29T17:12:02.909Z,21.48
2023-01-29T17:14:07.916Z,20.80
2023-01-29T17:16:23.375Z,18.98
2023-01-29T17:18:26.540Z,20.58
2023-01-29T17:20:30.744Z,19.33
2023-01-29T17:22:33.324Z,21.15
2023-01-29T17:24:37.267Z,21.15
2023-01-29T17:26:40.506Z,23.02
2023-01-29T17:28:44.214Z,19.77
2023-01-29T17:31:00.330Z,18.58
2023-01-29T17:33:12.817Z,22.63
2023-01-29T17:35:17.185Z,17.17
2023-01-29T17:37:20.178Z,19.98
2023-01-29T17:39:25.486Z,20.05
2023-01-29T17:41:31.141Z,18.63
2023-01-29T17:43:34.312Z,17.48
2023-01-29T17:45:37.123Z,17.73
2023-01-29T17:47:39.861Z,16.58
2023-01-29T17:49:43.413Z,15.80
2023-01-29T17:51:46.363Z,19.02
2023-01-29T17:53:49.137Z,17.73
2023-01-29T17:55:52.756Z,19.20
2023-01-29T17:57:57.092Z,19.65
2023-01-29T17:59:59.924Z,21.70
2023-01-29T18:02:02.775Z,18.85
2023-01-29T18:04:06.030Z,21.02
2023-01-29T18:06:09.920Z,20.90
2023-01-29T18:08:17.551Z,20.90
2023-01-29T18:10:22.936Z,21.27
2023-01-29T18:12:25.721Z,20.88
2023-01-29T18:14:29.731Z,19.25
2023-01-29T18:16:37.071Z,19.77
2023-01-29T18:18:40.444Z,21.05
2023-01-29T18:20:45.020Z,21.35
2023-01-29T18:22:48.486Z,18.25
2023-01-29T18:24:51.234Z,20.58
2023-01-29T18:26:53.949Z,18.65
2023-01-29T18:28:57.919Z,18.50
2023-01-29T18:31:03.404Z,18.75
2023-01-29T18:33:06.080Z,19.23
2023-01-29T18:35:09.943Z,17.02
2023-01-29T18:37:13.129Z,19.13
2023-01-29T18:39:15.993Z,18.33
2023-01-29T18:41:18.831Z,19.67
2023-01-29T18:43:22.392Z,24.90
2023-01-29T18:45:25.020Z,21.55
2023-01-29T18:47:28.996Z,24.60
2023-01-29T18:49:31.911Z,19.98
2023-01-29T18:51:34.761Z,19.95
2023-01-29T18:53:37.394Z,21.70
2023-01-29T18:55:40.109Z,22.60
2023-01-29T18:58:33.664Z,21.73
2023-01-29T19:00:07.185Z,20.60
2023-01-29T19:02:13.993Z,26.65
2023-01-29T19:04:17.975Z,24.42
2023-01-29T19:06:20.694Z,20.77
2023-01-29T19:08:23.323Z,21.27
2023-01-29T19:10:25.995Z,21.98
2023-01-29T19:12:28.893Z,20.38
2023-01-29T19:14:31.661Z,21.52
2023-01-29T19:16:34.467Z,24.88
2023-01-29T19:18:37.551Z,22.13
2023-01-29T19:20:42.863Z,21.25
2023-01-29T19:22:45.529Z,19.13
2023-01-29T19:24:48.146Z,17.67
2023-01-29T19:26:51.309Z,16.50
2023-01-29T19:28:53.992Z,18.35
2023-01-29T19:30:57.995Z,19.13
2023-01-29T19:33:00.850Z,17.55
2023-01-29T19:35:03.455Z,22.48
2023-01-29T19:37:07.455Z,18.52
2023-01-29T19:39:11.434Z,20.60
2023-01-29T19:41:14.079Z,23.20
2023-01-29T19:43:17.911Z,24.33
2023-01-29T19:45:37.175Z,23.70
2023-01-29T19:47:45.891Z,19.80
2023-01-29T19:49:48.580Z,19.58
2023-01-29T19:51:51.434Z,21.73
2023-01-29T19:53:55.458Z,15.48
2023-01-29T19:55:59.009Z,19.42
2023-01-29T19:58:03.432Z,21.52
2023-01-29T20:00:07.828Z,19.55
2023-01-29T20:02:10.826Z,15.88
2023-01-29T20:04:13.672Z,17.98
2023-01-29T20:06:18.996Z,18.70
2023-01-29T20:08:22.228Z,18.98
2023-01-29T20:10:27.615Z,18.23
2023-01-29T20:12:30.433Z,21.88
2023-01-29T20:14:33.044Z,19.60
2023-01-29T20:16:36.956Z,18.15
2023-01-29T20:18:39.591Z,16.48
2023-01-29T20:20:42.979Z,19.00
2023-01-29T20:22:46.287Z,17.73
2023-01-29T20:24:48.893Z,17.23
2023-01-29T20:26:52.933Z,19.38
2023-01-29T20:28:55.603Z,15.70
2023-01-29T20:30:59.050Z,17.10
2023-01-29T20:33:02.818Z,18.05
2023-01-29T20:35:06.174Z,14.88
2023-01-29T20:37:08.883Z,16.63
2023-01-29T20:39:11.530Z,16.67
2023-01-29T20:41:16.466Z,20.27
2023-01-29T20:43:20.439Z,21.50
2023-01-29T20:45:23.392Z,19.50
2023-01-29T20:47:26.079Z,19.52
2023-01-29T20:49:29.132Z,16.63
2023-01-29T20:51:32.069Z,16.38
2023-01-29T20:53:35.156Z,18.92
2023-01-29T20:55:37.983Z,15.57
2023-01-29T20:57:40.965Z,17.63
2023-01-29T20:59:45.153Z,17.10
2023-01-29T21:01:47.772Z,22.52
2023-01-29T21:03:50.432Z,20.75
2023-01-29T21:05:54.211Z,18.98
2023-01-29T21:07:56.905Z,17.67
2023-01-29T21:09:59.657Z,15.77
2023-01-29T21:12:05.229Z,17.88
2023-01-29T21:14:07.952Z,17.75
2023-01-29T21:16:12.056Z,17.65
2023-01-29T21:18:14.657Z,23.52
2023-01-29T21:20:17.785Z,19.40
2023-01-29T21:22:20.716Z,15.05
2023-01-29T21:24:23.392Z,24.20
2023-01-29T21:26:26.121Z,17.42
2023-01-29T21:28:28.999Z,23.23
2023-01-29T21:30:31.681Z,20.25
2023-01-29T21:32:35.661Z,18.80
2023-01-29T21:34:38.340Z,19.73
2023-01-29T21:36:40.958Z,17.70
2023-01-29T21:38:43.561Z,22.15
2023-01-29T21:40:46.191Z,21.42
2023-01-29T21:43:06.836Z,21.88
2023-01-29T21:45:10.769Z,18.42
2023-01-29T21:47:13.498Z,17.92
2023-01-29T21:49:17.537Z,20.08
2023-01-29T21:51:20.123Z,20.00
2023-01-29T21:53:22.786Z,16.73
2023-01-29T21:55:25.493Z,19.77
2023-01-29T21:57:28.166Z,15.80
2023-01-29T21:59:31.128Z,17.50
2023-01-29T22:01:37.257Z,18.63
2023-01-29T22:03:41.129Z,20.65
2023-01-29T22:05:45.170Z,20.90
2023-01-29T22:07:47.940Z,18.20
2023-01-29T22:09:51.154Z,17.40
2023-01-29T22:11:54.024Z,18.63
2023-01-29T22:13:56.736Z,17.85
2023-01-29T22:15:59.400Z,20.45
2023-01-29T22:18:01.982Z,18.05
2023-01-29T22:20:05.796Z,18.85
2023-01-29T22:22:13.161Z,17.80
2023-01-29T22:24:15.783Z,17.38
2023-01-29T22:26:18.719Z,22.35
2023-01-29T22:28:21.645Z,20.08
2023-01-29T22:30:24.348Z,18.55
2023-01-29T22:32:27.265Z,17.20
2023-01-29T22:34:30.026Z,18.42
2023-01-29T22:36:32.679Z,18.48
2023-01-29T22:38:36.994Z,20.88
2023-01-29T22:40:39.705Z,18.02
2023-01-29T22:42:42.626Z,18.23
2023-01-29T22:44:45.561Z,17.80
2023-01-29T22:46:48.715Z,19.48
2023-01-29T22:48:51.515Z,16.33
2023-01-29T22:51:09.419Z,17.70
2023-01-29T22:53:12.047Z,20.38
2023-01-29T22:55:16.236Z,18.50
2023-01-29T22:57:19.209Z,17.05
2023-01-29T22:59:21.941Z,18.60
2023-01-29T23:01:27.085Z,17.80
2023-01-29T23:03:30.188Z,17.38
2023-01-29T23:05:32.984Z,19.20
2023-01-29T23:07:35.769Z,18.38
2023-01-29T23:09:38.378Z,16.35
2023-01-29T23:11:42.388Z,18.83
2023-01-29T23:13:47.255Z,18.48
2023-01-29T23:15:59.229Z,20.35
2023-01-29T23:18:02.085Z,17.77
2023-01-29T23:20:05.231Z,15.23
2023-01-29T23:22:08.161Z,20.80
2023-01-29T23:24:11.791Z,19.48
2023-01-29T23:26:33.084Z,20.17
2023-01-29T23:28:37.146Z,19.90
2023-01-29T23:30:40.029Z,19.67
2023-01-29T23:32:42.898Z,16.52
2023-01-29T23:34:45.749Z,19.85
2023-01-29T23:36:48.600Z,20.27
2023-01-29T23:38:51.316Z,19.23
2023-01-29T23:40:57.814Z,20.38
2023-01-29T23:43:00.452Z,18.40
2023-01-29T23:45:04.783Z,24.20
2023-01-29T23:47:07.499Z,23.60
2023-01-29T23:49:10.250Z,17.45
2023-01-29T23:51:12.955Z,13.05
2023-01-29T23:53:15.812Z,21.55
2023-01-29T23:55:18.552Z,17.85
2023-01-29T23:57:21.234Z,21.60
2023-01-29T23:59:23.905Z,17.15
